Main page
METAR-TAF:

METAR-TAF

Airports :

Dubbo City Regional Airport

Dubbo, Australia

latitude: 32-12S, longitude: 148-34E, elevation: 275 m

Current weather observation

The report was made 34 minutes ago, at 03:00 UTC
Wind 11 kt from the Southwest
Temperature 15°C
Humidity 51%
Pressure 1016 hPa
Visibility 10 km or more
Scattered clouds at a height of 4100 ft

METAR: YSDU 160300Z AUTO 23011KT 9999 // SCT041 15/05 Q1016 RF00.0/000.0

Time: 13:34 (03:34 UTC)

Forecast

The report was made 4 hours and 31 minutes ago, at 23:03 UTC
Forecast valid from 16 at 00 UTC to 16 at 18 UTC
Wind 6 kt from the South
Visibility 10 km or more
no clouds below 1500 m and no cumulonimbus
From 16 at 0200 UTC
Wind 12 kt from the Southwest
Visibility 10 km or more
Scattered clouds at a height of 3000 ft
From 16 at 1200 UTC
Wind 6 kt from the West/Southwest
Visibility 10 km or more
Few clouds at a height of 1500 ft

TAF: YSDU 152303Z 1600/1618 18006KT CAVOK FM160200 23012KT 9999 SCT030 FM161200 24006KT 9999 FEW015

Weather observations and forecasts of more than 4000 airports (METAR and TAF reports).

The available stations are represented by yellow and red dots on the map.

Hover mouse over dot to see the name of the station.

Then click to see weather observations and forecasts.

To change the map : click on the green buttons with a black cross to zoom in, on the green button with a dash to zoom out, or on the green arrows for adjacent maps.


METAR-TAF: